Terminal Aerodrome Forecast
Issued by NWS

Home | Current Version | Previous Version | Text Only | Print | Product List | Glossary On
Versions: 1 2 3 4 5 6 7 8 9 10 11 12 13 14 15
000
FTUS45 KREV 021731
TAFMMH
TAF
KMMH 021731Z 0218/0318 11006KT P6SM FEW060 SCT100
     FM022300 22008KT P6SM BKN090
     FM030600 VRB03KT P6SM SCT090=

USA.gov is the U.S. government's official web portal to all federal, state and local government web resources and services.